TimeCDT,TemperatureF,Dew PointF,Humidity,Sea Level PressureIn,VisibilityMPH,Wind Direction,Wind SpeedMPH,Gust SpeedMPH,PrecipitationIn,Events,Conditions,WindDirDegrees,DateUTC
12:15 AM,50.0,33.8,54,29.95,10.0,ESE,10.4,-,N/A,,Clear,120,2013-05-15 05:15:00
12:35 AM,48.2,35.6,62,29.94,10.0,East,9.2,-,N/A,,Clear,90,2013-05-15 05:35:00
12:55 AM,50.0,33.8,54,29.97,10.0,East,6.9,-,N/A,Thunderstorm,Clear,90,2013-05-15 05:55:00
1:15 AM,53.6,33.8,47,30.00,10.0,Calm,Calm,-,N/A,Thunderstorm,Clear,0,2013-05-15 06:15:00
1:35 AM,53.6,33.8,47,30.02,10.0,Calm,Calm,-,N/A,,Clear,0,2013-05-15 06:35:00
1:55 AM,50.0,35.6,58,30.00,10.0,SSE,6.9,-,N/A,,Clear,150,2013-05-15 06:55:00
2:15 AM,50.0,32.0,50,29.99,10.0,SSE,8.1,-,N/A,,Clear,160,2013-05-15 07:15:00
2:35 AM,46.4,33.8,62,29.98,10.0,ESE,8.1,-,N/A,,Clear,120,2013-05-15 07:35:00
2:55 AM,46.4,33.8,62,30.00,10.0,East,5.8,-,N/A,,Clear,90,2013-05-15 07:55:00
3:15 AM,46.4,33.8,62,30.00,10.0,SSE,6.9,-,N/A,,Clear,150,2013-05-15 08:15:00
3:35 AM,46.4,33.8,62,29.99,10.0,SSE,9.2,-,N/A,,Clear,160,2013-05-15 08:35:00
3:55 AM,48.2,33.8,58,29.98,10.0,South,8.1,-,N/A,,Clear,170,2013-05-15 08:55:00
4:15 AM,50.0,33.8,54,29.98,10.0,NE,16.1,-,N/A,,Clear,50,2013-05-15 09:15:00
4:35 AM,50.0,33.8,54,29.99,10.0,NE,10.4,-,N/A,,Clear,40,2013-05-15 09:35:00
4:55 AM,48.2,32.0,54,29.99,10.0,North,3.5,-,N/A,,Clear,360,2013-05-15 09:55:00
5:15 AM,46.4,33.8,62,29.99,10.0,SE,6.9,-,N/A,,Clear,130,2013-05-15 10:15:00
5:35 AM,46.4,33.8,62,30.00,10.0,SE,9.2,-,N/A,,Clear,130,2013-05-15 10:35:00
5:55 AM,44.6,33.8,66,30.00,10.0,ESE,8.1,-,N/A,,Clear,120,2013-05-15 10:55:00
6:15 AM,44.6,33.8,66,30.00,10.0,SE,6.9,-,N/A,,Clear,130,2013-05-15 11:15:00
6:35 AM,48.2,33.8,58,30.00,10.0,East,4.6,-,N/A,,Clear,100,2013-05-15 11:35:00
6:55 AM,48.2,35.6,62,30.00,10.0,ESE,10.4,-,N/A,,Clear,120,2013-05-15 11:55:00
7:15 AM,50.0,35.6,58,30.01,10.0,ESE,11.5,-,N/A,,Clear,110,2013-05-15 12:15:00
7:35 AM,51.8,37.4,58,30.02,10.0,ESE,10.4,-,N/A,,Clear,110,2013-05-15 12:35:00
7:55 AM,55.4,39.2,54,30.02,10.0,East,9.2,-,N/A,,Clear,100,2013-05-15 12:55:00
8:15 AM,57.2,41.0,55,30.02,10.0,ESE,12.7,-,N/A,,Clear,120,2013-05-15 13:15:00
8:35 AM,59.0,39.2,48,30.02,10.0,ESE,15.0,20.7,N/A,,Clear,120,2013-05-15 13:35:00
8:55 AM,60.8,39.2,45,30.03,10.0,SE,16.1,23.0,N/A,,Clear,130,2013-05-15 13:55:00
9:15 AM,59.0,39.2,48,30.03,10.0,ESE,15.0,-,N/A,,Mostly Cloudy,120,2013-05-15 14:15:00
9:35 AM,60.8,39.2,45,30.03,10.0,ESE,17.3,23.0,N/A,,Overcast,110,2013-05-15 14:35:00
9:55 AM,62.6,39.2,42,30.03,10.0,ESE,16.1,24.2,N/A,,Mostly Cloudy,120,2013-05-15 14:55:00
10:15 AM,64.4,39.2,40,30.02,10.0,ESE,16.1,-,N/A,,Clear,120,2013-05-15 15:15:00
10:35 AM,64.4,41.0,42,30.02,10.0,SE,18.4,21.9,N/A,,Clear,130,2013-05-15 15:35:00
10:55 AM,66.2,41.0,40,30.01,10.0,SE,17.3,21.9,N/A,,Clear,130,2013-05-15 15:55:00
11:15 AM,68.0,39.2,35,30.01,10.0,SE,16.1,24.2,N/A,,Clear,130,2013-05-15 16:15:00
11:35 AM,68.0,39.2,35,30.01,10.0,ESE,16.1,-,N/A,,Clear,120,2013-05-15 16:35:00
11:55 AM,68.0,39.2,35,30.00,10.0,ESE,18.4,-,N/A,,Clear,110,2013-05-15 16:55:00
12:15 PM,71.6,41.0,33,29.99,10.0,ESE,16.1,21.9,N/A,,Clear,120,2013-05-15 17:15:00
12:35 PM,71.6,39.2,31,29.97,10.0,East,17.3,23.0,N/A,,Clear,100,2013-05-15 17:35:00
12:55 PM,73.4,41.0,31,29.97,10.0,East,16.1,21.9,N/A,,Clear,90,2013-05-15 17:55:00
1:15 PM,73.4,41.0,31,29.97,10.0,East,10.4,24.2,N/A,,Clear,100,2013-05-15 18:15:00
1:35 PM,73.4,41.0,31,29.96,10.0,East,15.0,20.7,N/A,,Clear,90,2013-05-15 18:35:00
1:55 PM,73.4,41.0,31,29.95,10.0,East,15.0,19.6,N/A,,Clear,90,2013-05-15 18:55:00
2:15 PM,73.4,41.0,31,29.95,10.0,ENE,10.4,19.6,N/A,,Clear,70,2013-05-15 19:15:00
2:35 PM,73.4,41.0,31,29.94,10.0,East,17.3,20.7,N/A,,Clear,90,2013-05-15 19:35:00
2:55 PM,73.4,41.0,31,29.94,10.0,NE,10.4,-,N/A,,Clear,40,2013-05-15 19:55:00
3:15 PM,75.2,42.8,31,29.93,10.0,NE,13.8,19.6,N/A,,Clear,50,2013-05-15 20:15:00
3:35 PM,75.2,42.8,31,29.92,10.0,NE,15.0,19.6,N/A,,Clear,40,2013-05-15 20:35:00
4:15 PM,75.2,41.0,29,29.91,10.0,East,12.7,-,N/A,,Clear,90,2013-05-15 21:15:00
4:35 PM,75.2,41.0,29,29.90,10.0,East,13.8,19.6,N/A,,Clear,80,2013-05-15 21:35:00
4:55 PM,75.2,42.8,31,29.89,10.0,East,12.7,19.6,N/A,,Clear,100,2013-05-15 21:55:00
5:15 PM,75.2,42.8,31,29.89,10.0,East,13.8,-,N/A,,Clear,100,2013-05-15 22:15:00
5:35 PM,75.2,41.0,29,29.88,10.0,ESE,15.0,-,N/A,,Clear,120,2013-05-15 22:35:00
5:55 PM,75.2,41.0,29,29.88,10.0,ESE,13.8,18.4,N/A,,Clear,110,2013-05-15 22:55:00
6:15 PM,75.2,42.8,31,29.88,10.0,ESE,17.3,-,N/A,,Clear,110,2013-05-15 23:15:00
6:35 PM,73.4,41.0,31,29.88,10.0,ESE,15.0,23.0,N/A,,Clear,120,2013-05-15 23:35:00
6:55 PM,73.4,41.0,31,29.88,10.0,SE,12.7,21.9,N/A,,Scattered Clouds,140,2013-05-15 23:55:00
7:15 PM,69.8,42.8,38,29.88,10.0,ESE,15.0,-,N/A,,Scattered Clouds,120,2013-05-16 00:15:00
7:35 PM,71.6,42.8,35,29.88,10.0,ESE,12.7,-,N/A,,Partly Cloudy,110,2013-05-16 00:35:00
7:55 PM,69.8,44.6,40,29.88,10.0,ESE,12.7,-,N/A,,Clear,120,2013-05-16 00:55:00
8:15 PM,68.0,42.8,40,29.89,10.0,ESE,12.7,-,N/A,,Clear,120,2013-05-16 01:15:00
8:35 PM,66.2,42.8,43,29.89,10.0,East,10.4,-,N/A,,Clear,100,2013-05-16 01:35:00
8:55 PM,62.6,44.6,52,29.89,10.0,East,10.4,-,N/A,,Clear,100,2013-05-16 01:55:00
9:15 PM,59.0,42.8,55,29.89,10.0,East,10.4,-,N/A,,Clear,100,2013-05-16 02:15:00
9:35 PM,60.8,41.0,48,29.89,10.0,East,8.1,-,N/A,,Clear,90,2013-05-16 02:35:00
9:55 PM,62.6,41.0,45,29.90,10.0,East,10.4,-,N/A,,Clear,100,2013-05-16 02:55:00
10:15 PM,62.6,41.0,45,29.89,10.0,SE,12.7,20.7,N/A,,Scattered Clouds,130,2013-05-16 03:15:00
10:35 PM,68.0,39.2,35,29.91,10.0,South,10.4,-,N/A,,Overcast,180,2013-05-16 03:35:00
10:55 PM,64.4,44.6,49,29.90,10.0,ESE,8.1,-,0.01,Rain,Light Rain,110,2013-05-16 03:55:00
11:15 PM,64.4,41.0,42,29.89,10.0,East,5.8,-,N/A,,Mostly Cloudy,100,2013-05-16 04:15:00
11:35 PM,64.4,42.8,45,29.89,10.0,East,4.6,-,N/A,,Partly Cloudy,90,2013-05-16 04:35:00
11:55 PM,62.6,46.4,55,29.89,10.0,ENE,6.9,-,N/A,,Clear,60,2013-05-16 04:55:00